createdAt,value
2022-10-23T00:00:17.281Z,64.50
2022-10-23T00:02:44.319Z,64.50
2022-10-23T00:05:11.359Z,64.40
2022-10-23T00:07:38.064Z,65.00
2022-10-23T00:10:05.213Z,64.30
2022-10-23T00:12:32.366Z,64.20
2022-10-23T00:14:59.111Z,64.20
2022-10-23T00:17:25.735Z,64.10
2022-10-23T00:19:52.402Z,64.20
2022-10-23T00:22:19.077Z,64.20
2022-10-23T00:24:45.798Z,64.00
2022-10-23T00:27:12.456Z,63.90
2022-10-23T00:29:39.100Z,64.00
2022-10-23T00:32:05.790Z,63.90
2022-10-23T00:34:32.443Z,63.90
2022-10-23T00:36:59.191Z,63.80
2022-10-23T00:39:25.890Z,63.80
2022-10-23T00:41:52.757Z,63.80
2022-10-23T00:44:22.546Z,63.80
2022-10-23T00:46:49.492Z,63.90
2022-10-23T00:49:16.429Z,63.90
2022-10-23T00:51:55.939Z,63.80
2022-10-23T00:54:26.875Z,63.70
2022-10-23T00:56:59.104Z,63.70
2022-10-23T00:59:26.365Z,63.50
2022-10-23T01:01:53.333Z,63.60
2022-10-23T01:04:20.868Z,63.60
2022-10-23T01:07:10.584Z,63.50
2022-10-23T01:10:06.548Z,63.40
2022-10-23T01:12:33.148Z,63.40
2022-10-23T01:15:13.420Z,63.50
2022-10-23T01:17:47.515Z,63.60
2022-10-23T01:20:44.567Z,63.70
2022-10-23T01:23:29.117Z,63.60
2022-10-23T01:26:09.995Z,63.40
2022-10-23T01:28:44.727Z,63.60
2022-10-23T01:31:29.828Z,63.50
2022-10-23T01:34:03.687Z,63.50
2022-10-23T01:36:32.906Z,63.30
2022-10-23T01:39:06.268Z,63.40
2022-10-23T01:41:39.184Z,63.50
2022-10-23T01:44:19.310Z,63.30
2022-10-23T01:46:49.510Z,63.50
2022-10-23T01:49:18.479Z,63.40
2022-10-23T01:51:52.888Z,63.30
2022-10-23T01:54:24.099Z,63.30
2022-10-23T01:56:51.612Z,63.40
2022-10-23T01:59:23.553Z,63.50
2022-10-23T02:01:54.171Z,63.70
2022-10-23T02:04:31.076Z,63.70
2022-10-23T02:06:57.886Z,63.50
2022-10-23T02:09:24.658Z,63.60
2022-10-23T02:11:57.769Z,63.50
2022-10-23T02:14:40.686Z,63.40
2022-10-23T02:17:33.391Z,63.00
2022-10-23T02:20:25.447Z,63.00
2022-10-23T02:23:25.150Z,62.50
2022-10-23T02:25:57.712Z,62.90
2022-10-23T02:28:32.692Z,62.60
2022-10-23T02:31:00.311Z,62.40
2022-10-23T02:33:28.901Z,62.20
2022-10-23T02:35:56.011Z,62.10
2022-10-23T02:38:40.547Z,64.20
2022-10-23T02:41:16.400Z,62.10
2022-10-23T02:44:21.768Z,62.00
2022-10-23T02:46:51.172Z,62.10
2022-10-23T02:49:20.649Z,62.00
2022-10-23T02:52:08.800Z,61.80
2022-10-23T02:54:55.217Z,61.60
2022-10-23T02:57:26.227Z,61.60
2022-10-23T02:59:59.653Z,61.50
2022-10-23T03:05:07.168Z,61.60
2022-10-23T03:07:34.286Z,61.60
2022-10-23T03:10:00.965Z,61.80
2022-10-23T03:12:27.621Z,61.50
2022-10-23T03:14:54.263Z,61.60
2022-10-23T03:17:20.925Z,61.40
2022-10-23T03:19:47.571Z,61.40
2022-10-23T03:22:14.222Z,61.50
2022-10-23T03:24:40.843Z,61.50
2022-10-23T03:27:07.595Z,61.60
2022-10-23T03:29:34.271Z,61.30
2022-10-23T03:32:00.913Z,61.40
2022-10-23T03:34:27.587Z,61.20
2022-10-23T03:36:54.338Z,61.20
2022-10-23T03:39:21.227Z,61.10
2022-10-23T03:41:48.087Z,61.20
2022-10-23T03:44:14.749Z,61.60
2022-10-23T03:46:41.440Z,61.40
2022-10-23T03:49:08.117Z,61.40
2022-10-23T03:51:35.204Z,61.40
2022-10-23T03:54:02.109Z,61.40
2022-10-23T03:56:28.820Z,61.20
2022-10-23T03:58:55.500Z,61.10
2022-10-23T04:01:22.282Z,61.10
2022-10-23T04:03:48.997Z,61.20
2022-10-23T04:06:15.675Z,61.50
2022-10-23T04:08:45.628Z,61.10
2022-10-23T04:11:12.340Z,60.80
2022-10-23T04:13:38.970Z,60.90
2022-10-23T04:16:05.780Z,60.80
2022-10-23T04:18:32.430Z,60.50
2022-10-23T04:20:59.085Z,60.60
2022-10-23T04:23:25.771Z,60.60
2022-10-23T04:25:55.414Z,60.50
2022-10-23T04:28:22.051Z,60.60
2022-10-23T04:30:48.688Z,60.60
2022-10-23T04:33:15.404Z,60.50
2022-10-23T04:35:42.106Z,60.50
2022-10-23T04:38:08.798Z,60.50
2022-10-23T04:40:35.583Z,60.60
2022-10-23T04:43:02.248Z,60.50
2022-10-23T04:45:29.000Z,60.30
2022-10-23T04:47:56.240Z,60.30
2022-10-23T04:50:23.383Z,60.60
2022-10-23T04:52:54.677Z,60.50
2022-10-23T04:55:21.455Z,60.50
2022-10-23T04:57:48.350Z,60.50
2022-10-23T05:00:18.652Z,60.60
2022-10-23T05:02:45.802Z,60.80
2022-10-23T05:05:12.480Z,61.20
2022-10-23T05:07:39.278Z,62.40
2022-10-23T05:10:06.673Z,63.00
2022-10-23T05:12:33.361Z,62.60
2022-10-23T05:15:00.057Z,62.70
2022-10-23T05:17:32.361Z,63.10
2022-10-23T05:20:02.951Z,64.10
2022-10-23T05:22:34.463Z,64.10
2022-10-23T05:25:02.179Z,64.50
2022-10-23T05:27:28.845Z,64.60
2022-10-23T05:29:55.562Z,64.70
2022-10-23T05:32:24.669Z,65.10
2022-10-23T05:34:51.400Z,65.30
2022-10-23T05:37:18.095Z,65.70
2022-10-23T05:39:44.855Z,65.70
2022-10-23T05:42:11.549Z,66.70
2022-10-23T05:44:38.381Z,67.80
2022-10-23T05:47:05.141Z,66.60
2022-10-23T05:49:31.813Z,66.40
2022-10-23T05:51:58.578Z,66.20
2022-10-23T05:54:25.235Z,66.20
2022-10-23T05:56:52.154Z,66.70
2022-10-23T05:59:22.074Z,66.60
2022-10-23T06:01:50.080Z,66.30
2022-10-23T06:04:16.794Z,66.50
2022-10-23T06:06:46.574Z,66.90
2022-10-23T06:09:14.404Z,66.60
2022-10-23T06:11:41.763Z,66.80
2022-10-23T06:14:08.559Z,66.90
2022-10-23T06:16:35.219Z,66.80
2022-10-23T06:19:01.941Z,66.90
2022-10-23T06:21:28.581Z,66.80
2022-10-23T06:23:55.630Z,66.80
2022-10-23T06:26:22.536Z,67.00
2022-10-23T06:28:49.309Z,66.90
2022-10-23T06:31:19.150Z,67.10
2022-10-23T06:33:46.225Z,67.10
2022-10-23T06:36:12.946Z,67.20
2022-10-23T06:38:40.645Z,67.10
2022-10-23T06:41:16.988Z,67.20
2022-10-23T06:43:44.101Z,67.30
2022-10-23T06:46:11.040Z,67.20
2022-10-23T06:48:37.836Z,67.20
2022-10-23T06:51:08.207Z,67.20
2022-10-23T06:53:35.904Z,67.30
2022-10-23T06:56:04.291Z,67.20
2022-10-23T06:58:31.608Z,67.20
2022-10-23T07:01:02.387Z,67.20
2022-10-23T07:03:29.598Z,67.70
2022-10-23T07:05:56.249Z,67.80
2022-10-23T07:08:23.851Z,67.70
2022-10-23T07:10:50.480Z,67.50
2022-10-23T07:13:17.346Z,67.60
2022-10-23T07:15:44.387Z,67.50
2022-10-23T07:18:16.447Z,67.70
2022-10-23T07:20:43.241Z,68.20
2022-10-23T07:23:12.254Z,68.00
2022-10-23T07:25:38.964Z,67.80
2022-10-23T07:28:05.716Z,67.80
2022-10-23T07:30:32.406Z,67.90
2022-10-23T07:32:59.227Z,67.90
2022-10-23T07:35:26.060Z,68.20
2022-10-23T07:37:52.794Z,68.20
2022-10-23T07:40:19.498Z,68.30
2022-10-23T07:42:46.142Z,68.40
2022-10-23T07:45:12.879Z,68.70
2022-10-23T07:47:39.813Z,68.80
2022-10-23T07:50:07.191Z,68.80
2022-10-23T07:52:36.215Z,68.80
2022-10-23T07:55:03.615Z,69.00
2022-10-23T07:57:30.270Z,69.30
2022-10-23T07:59:57.048Z,69.30
2022-10-23T08:02:23.906Z,69.40
2022-10-23T08:04:50.825Z,69.50
2022-10-23T08:07:17.675Z,69.50
2022-10-23T08:09:44.428Z,69.70
2022-10-23T08:12:11.189Z,69.90
2022-10-23T08:14:37.858Z,69.90
2022-10-23T08:17:05.245Z,70.00
2022-10-23T08:19:32.484Z,70.20
2022-10-23T08:21:59.265Z,70.30
2022-10-23T08:24:25.935Z,70.40
2022-10-23T08:26:53.018Z,70.50
2022-10-23T08:29:19.748Z,70.50
2022-10-23T08:31:46.785Z,70.50
2022-10-23T08:34:14.093Z,70.50
2022-10-23T08:36:40.850Z,70.60
2022-10-23T08:39:09.393Z,70.70
2022-10-23T08:41:43.050Z,70.60
2022-10-23T08:44:21.659Z,71.30
2022-10-23T08:46:55.342Z,70.80
2022-10-23T08:49:36.341Z,70.80
2022-10-23T08:52:14.046Z,70.90
2022-10-23T08:54:54.766Z,70.90
2022-10-23T08:57:24.200Z,71.10
2022-10-23T09:00:14.197Z,71.20
2022-10-23T09:02:44.904Z,71.40
2022-10-23T09:05:53.568Z,71.40
2022-10-23T09:08:23.263Z,71.60
2022-10-23T09:10:57.223Z,71.70
2022-10-23T09:14:04.963Z,71.80
2022-10-23T09:17:03.857Z,72.40
2022-10-23T09:19:31.358Z,71.80
2022-10-23T09:21:59.015Z,71.80
2022-10-23T09:24:26.945Z,72.40
2022-10-23T09:26:54.623Z,72.00
2022-10-23T09:29:23.906Z,72.10
2022-10-23T09:31:56.000Z,72.20
2022-10-23T09:34:25.746Z,72.30
2022-10-23T09:36:59.590Z,72.20
2022-10-23T09:39:28.577Z,72.40
2022-10-23T09:41:57.022Z,72.20
2022-10-23T09:46:58.971Z,72.20
2022-10-23T09:49:28.250Z,72.10
2022-10-23T09:52:11.890Z,72.20
2022-10-23T09:54:47.894Z,72.50
2022-10-23T09:57:25.291Z,72.50
2022-10-23T10:00:00.106Z,72.30
2022-10-23T10:02:31.417Z,72.60
2022-10-23T10:04:58.620Z,72.60
2022-10-23T10:07:29.372Z,72.50
2022-10-23T10:09:58.365Z,72.60
2022-10-23T10:12:45.986Z,72.60
2022-10-23T10:15:24.834Z,72.70
2022-10-23T10:18:09.711Z,72.70
2022-10-23T10:21:03.618Z,72.50
2022-10-23T10:23:35.201Z,72.50
2022-10-23T10:26:42.943Z,72.60
2022-10-23T10:29:33.596Z,72.70
2022-10-23T10:32:23.324Z,72.60
2022-10-23T10:35:10.074Z,72.50
2022-10-23T10:37:55.030Z,72.60
2022-10-23T10:40:41.241Z,72.50
2022-10-23T10:43:38.573Z,72.60
2022-10-23T10:46:25.428Z,72.40
2022-10-23T10:49:06.451Z,72.70
2022-10-23T10:51:44.091Z,72.90
2022-10-23T10:54:23.667Z,72.90
2022-10-23T10:56:50.479Z,72.90
2022-10-23T10:59:23.337Z,73.40
2022-10-23T11:02:04.808Z,73.10
2022-10-23T11:04:43.060Z,73.10
2022-10-23T11:07:15.224Z,73.10
2022-10-23T11:09:43.196Z,73.20
2022-10-23T11:12:20.245Z,73.20
2022-10-23T11:14:47.209Z,73.20
2022-10-23T11:17:38.802Z,73.40
2022-10-23T11:20:30.710Z,73.40
2022-10-23T11:23:06.425Z,73.60
2022-10-23T11:26:01.043Z,73.60
2022-10-23T11:28:48.619Z,73.50
2022-10-23T11:31:42.533Z,73.70
2022-10-23T11:34:24.352Z,73.80
2022-10-23T11:36:55.303Z,74.00
2022-10-23T11:39:25.972Z,73.80
2022-10-23T11:41:58.474Z,73.90
2022-10-23T11:44:41.590Z,74.10
2022-10-23T11:47:40.129Z,74.10
2022-10-23T11:50:07.371Z,74.20
2022-10-23T11:53:13.076Z,74.20
2022-10-23T11:55:56.202Z,74.30
2022-10-23T11:58:31.867Z,74.10
2022-10-23T12:01:06.088Z,74.40
2022-10-23T12:03:42.432Z,74.30
2022-10-23T12:06:27.110Z,74.10
2022-10-23T12:08:59.127Z,74.00
2022-10-23T12:11:42.787Z,73.70
2022-10-23T12:14:40.380Z,74.30
2022-10-23T12:17:25.383Z,74.70
2022-10-23T12:20:12.779Z,74.70
2022-10-23T12:22:54.442Z,74.50
2022-10-23T12:25:43.567Z,74.60
2022-10-23T12:28:23.214Z,73.90
2022-10-23T12:31:27.532Z,73.80
2022-10-23T12:34:22.245Z,73.80
2022-10-23T12:36:54.809Z,74.20
2022-10-23T12:39:33.176Z,74.00
2022-10-23T12:42:00.779Z,73.90
2022-10-23T12:44:28.521Z,73.90
2022-10-23T12:46:59.149Z,73.90
2022-10-23T12:49:28.723Z,74.00
2022-10-23T12:52:14.439Z,74.00
2022-10-23T12:54:41.535Z,73.80
2022-10-23T12:57:22.685Z,73.80
2022-10-23T12:59:51.442Z,73.90
2022-10-23T13:02:25.509Z,74.00
2022-10-23T13:04:54.737Z,73.80
2022-10-23T13:07:26.131Z,74.40
2022-10-23T13:09:57.689Z,73.20
2022-10-23T13:12:34.204Z,73.20
2022-10-23T13:15:21.405Z,72.90
2022-10-23T13:20:35.068Z,73.10
2022-10-23T13:23:18.362Z,73.50
2022-10-23T13:26:01.437Z,73.30
2022-10-23T13:28:35.041Z,73.60
2022-10-23T13:31:10.690Z,73.40
2022-10-23T13:33:38.672Z,73.60
2022-10-23T13:36:13.476Z,73.40
2022-10-23T13:38:45.841Z,73.60
2022-10-23T13:41:20.452Z,73.20
2022-10-23T13:43:48.192Z,73.30
2022-10-23T13:46:16.360Z,73.10
2022-10-23T13:48:43.295Z,73.20
2022-10-23T13:51:25.386Z,73.20
2022-10-23T13:53:52.545Z,72.60
2022-10-23T13:56:21.074Z,72.80
2022-10-23T13:58:48.319Z,73.30
2022-10-23T14:01:29.791Z,73.00
2022-10-23T14:03:58.279Z,72.90
2022-10-23T14:06:25.342Z,72.80
2022-10-23T14:08:52.319Z,72.90
2022-10-23T14:11:20.130Z,72.40
2022-10-23T14:13:47.347Z,72.80
2022-10-23T14:16:16.066Z,73.00
2022-10-23T14:18:43.285Z,73.40
2022-10-23T14:21:12.627Z,73.40
2022-10-23T14:23:39.408Z,73.30
2022-10-23T14:26:08.165Z,73.30
2022-10-23T14:28:35.289Z,73.10
2022-10-23T14:31:13.520Z,73.30
2022-10-23T14:33:41.427Z,73.50
2022-10-23T14:36:08.758Z,73.20
2022-10-23T14:38:35.823Z,73.20
2022-10-23T14:41:03.012Z,73.30
2022-10-23T14:43:29.713Z,74.00
2022-10-23T14:45:56.519Z,73.30
2022-10-23T14:48:23.213Z,73.20
2022-10-23T14:50:50.344Z,73.30
2022-10-23T14:53:17.251Z,73.50
2022-10-23T14:55:43.996Z,73.70
2022-10-23T14:58:10.671Z,73.30
2022-10-23T15:00:37.438Z,73.00
2022-10-23T15:03:04.158Z,73.00
2022-10-23T15:05:30.898Z,73.00
2022-10-23T15:07:59.009Z,73.00
2022-10-23T15:10:25.774Z,73.20
2022-10-23T15:12:52.448Z,73.00
2022-10-23T15:15:19.218Z,73.00
2022-10-23T15:17:45.932Z,73.20
2022-10-23T15:20:12.631Z,73.10
2022-10-23T15:22:39.332Z,73.20
2022-10-23T15:25:06.781Z,73.20
2022-10-23T15:27:33.532Z,73.00
2022-10-23T15:30:00.250Z,72.90
2022-10-23T15:32:27.042Z,72.80
2022-10-23T15:34:53.779Z,72.90
2022-10-23T15:37:20.510Z,72.90
2022-10-23T15:39:47.319Z,73.00
2022-10-23T15:42:14.211Z,73.10
2022-10-23T15:44:41.477Z,73.20
2022-10-23T15:47:08.300Z,73.40
2022-10-23T15:49:35.317Z,73.10
2022-10-23T15:52:03.241Z,73.00
2022-10-23T15:54:32.806Z,72.90
2022-10-23T15:57:00.436Z,72.90
2022-10-23T15:59:28.663Z,72.90
2022-10-23T16:01:55.908Z,72.90
2022-10-23T16:04:22.818Z,73.00
2022-10-23T16:06:49.843Z,73.00
2022-10-23T16:09:16.907Z,72.80
2022-10-23T16:11:44.183Z,73.00
2022-10-23T16:14:15.945Z,73.00
2022-10-23T16:16:43.156Z,72.80
2022-10-23T16:19:11.384Z,72.70
2022-10-23T16:21:38.454Z,72.90
2022-10-23T16:24:07.270Z,72.80
2022-10-23T16:26:35.545Z,72.80
2022-10-23T16:29:05.382Z,72.70
2022-10-23T16:31:32.633Z,72.80
2022-10-23T16:34:00.791Z,72.50
2022-10-23T16:36:28.608Z,72.60
2022-10-23T16:38:55.421Z,72.60
2022-10-23T16:41:22.127Z,72.50
2022-10-23T16:43:48.815Z,72.50
2022-10-23T16:46:18.884Z,72.40
2022-10-23T16:48:46.059Z,72.60
2022-10-23T16:51:16.287Z,72.60
2022-10-23T16:53:43.950Z,72.70
2022-10-23T16:56:12.733Z,72.60
2022-10-23T16:58:42.382Z,72.50
2022-10-23T17:01:20.500Z,72.60
2022-10-23T17:03:49.314Z,72.80
2022-10-23T17:06:18.963Z,72.60
2022-10-23T17:08:46.043Z,72.60
2022-10-23T17:11:17.016Z,72.70
2022-10-23T17:13:55.262Z,72.70
2022-10-23T17:16:34.912Z,72.60
2022-10-23T17:19:02.405Z,72.90
2022-10-23T17:21:33.481Z,72.80
2022-10-23T17:26:33.193Z,72.80
2022-10-23T17:29:01.823Z,72.90
2022-10-23T17:31:31.697Z,72.80
2022-10-23T17:34:02.204Z,72.80
2022-10-23T17:36:31.189Z,72.70
2022-10-23T17:38:58.306Z,72.90
2022-10-23T17:41:26.166Z,72.90
2022-10-23T17:43:57.516Z,72.80
2022-10-23T17:46:24.259Z,72.80
2022-10-23T17:48:50.915Z,72.90
2022-10-23T17:51:20.424Z,73.00
2022-10-23T17:53:49.298Z,73.10
2022-10-23T17:56:22.653Z,73.00
2022-10-23T17:59:00.516Z,72.90
2022-10-23T18:01:29.100Z,73.00
2022-10-23T18:03:59.089Z,73.10
2022-10-23T18:06:29.798Z,73.10
2022-10-23T18:08:57.008Z,73.10
2022-10-23T18:11:29.567Z,73.00
2022-10-23T18:16:30.186Z,73.10
2022-10-23T18:18:58.667Z,73.10
2022-10-23T18:21:25.400Z,73.20
2022-10-23T18:23:52.615Z,73.10
2022-10-23T18:26:25.177Z,73.10
2022-10-23T18:28:55.440Z,73.20
2022-10-23T18:31:24.980Z,73.20
2022-10-23T18:34:01.441Z,73.30
2022-10-23T18:36:31.048Z,73.30
2022-10-23T18:38:58.012Z,73.30
2022-10-23T18:41:25.601Z,73.30
2022-10-23T18:43:52.826Z,73.50
2022-10-23T18:46:20.513Z,73.60
2022-10-23T18:48:47.963Z,73.70
2022-10-23T18:51:26.833Z,73.70
2022-10-23T18:53:53.865Z,74.20
2022-10-23T18:56:28.133Z,74.30
2022-10-23T18:59:00.046Z,74.50
2022-10-23T19:01:28.371Z,74.70
2022-10-23T19:06:24.087Z,75.00
2022-10-23T19:08:51.340Z,75.20
2022-10-23T19:11:20.844Z,75.40
2022-10-23T19:13:47.657Z,75.90
2022-10-23T19:16:16.240Z,76.20
2022-10-23T19:18:45.262Z,76.60
2022-10-23T19:21:12.731Z,76.00
2022-10-23T19:23:50.448Z,76.50
2022-10-23T19:26:20.293Z,76.70
2022-10-23T19:31:23.419Z,76.70
2022-10-23T19:33:50.381Z,76.70
2022-10-23T19:36:19.699Z,76.80
2022-10-23T19:38:49.138Z,76.80
2022-10-23T19:41:19.435Z,76.50
2022-10-23T19:43:54.978Z,76.40
2022-10-23T19:46:24.880Z,76.20
2022-10-23T19:48:55.195Z,75.70
2022-10-23T19:51:34.821Z,75.50
2022-10-23T19:54:09.414Z,75.30
2022-10-23T19:56:42.061Z,75.30
2022-10-23T19:59:10.285Z,75.20
2022-10-23T20:01:38.169Z,75.30
2022-10-23T20:04:07.670Z,75.20
2022-10-23T20:06:36.272Z,75.10
2022-10-23T20:09:07.986Z,74.90
2022-10-23T20:11:40.933Z,74.90
2022-10-23T20:14:12.320Z,74.70
2022-10-23T20:16:40.849Z,74.60
2022-10-23T20:19:13.963Z,74.40
2022-10-23T20:21:43.734Z,74.40
2022-10-23T20:24:15.360Z,74.30
2022-10-23T20:26:45.199Z,73.40
2022-10-23T20:29:15.206Z,73.20
2022-10-23T20:31:43.580Z,72.80
2022-10-23T20:34:11.366Z,72.70
2022-10-23T20:36:46.397Z,72.70
2022-10-23T20:39:17.567Z,72.40
2022-10-23T20:41:45.115Z,72.20
2022-10-23T20:44:14.948Z,71.90
2022-10-23T20:46:45.108Z,72.00
2022-10-23T20:49:13.232Z,72.00
2022-10-23T20:51:39.972Z,71.80
2022-10-23T20:54:06.849Z,71.60
2022-10-23T20:56:35.641Z,71.30
2022-10-23T20:59:08.292Z,71.00
2022-10-23T21:01:35.226Z,70.40
2022-10-23T21:04:03.399Z,70.00
2022-10-23T21:06:45.826Z,69.40
2022-10-23T21:09:18.464Z,69.40
2022-10-23T21:11:45.288Z,69.80
2022-10-23T21:14:12.175Z,69.10
2022-10-23T21:16:41.360Z,68.20
2022-10-23T21:19:10.256Z,68.10
2022-10-23T21:21:36.932Z,68.40
2022-10-23T21:24:09.289Z,67.30
2022-10-23T21:26:36.707Z,66.70
2022-10-23T21:29:20.000Z,66.90
2022-10-23T21:31:57.840Z,66.90
2022-10-23T21:34:26.150Z,66.80
2022-10-23T21:37:11.818Z,66.60
2022-10-23T21:39:38.951Z,66.70
2022-10-23T21:42:05.705Z,66.50
2022-10-23T21:44:32.591Z,66.90
2022-10-23T21:46:59.257Z,66.90
2022-10-23T21:49:25.962Z,66.70
2022-10-23T21:51:54.841Z,66.80
2022-10-23T21:54:22.015Z,66.70
2022-10-23T21:56:51.214Z,66.80
2022-10-23T21:59:20.188Z,66.80
2022-10-23T22:01:48.360Z,66.80
2022-10-23T22:04:19.445Z,67.30
2022-10-23T22:06:47.840Z,67.60
2022-10-23T22:09:18.888Z,67.30
2022-10-23T22:11:46.059Z,67.30
2022-10-23T22:14:12.756Z,67.40
2022-10-23T22:16:39.471Z,67.40
2022-10-23T22:19:06.128Z,67.90
2022-10-23T22:21:32.878Z,67.90
2022-10-23T22:24:01.111Z,68.20
2022-10-23T22:26:36.851Z,68.20
2022-10-23T22:29:12.153Z,68.30
2022-10-23T22:31:41.284Z,68.30
2022-10-23T22:34:25.273Z,68.30
2022-10-23T22:37:00.264Z,68.40
2022-10-23T22:39:26.995Z,68.70
2022-10-23T22:41:53.691Z,68.80
2022-10-23T22:44:20.370Z,69.00
2022-10-23T22:46:47.029Z,69.20
2022-10-23T22:49:13.739Z,69.30
2022-10-23T22:51:40.709Z,69.50
2022-10-23T22:54:07.756Z,69.40
2022-10-23T22:56:35.157Z,69.50
2022-10-23T22:59:03.027Z,69.50
2022-10-23T23:01:39.538Z,69.50
2022-10-23T23:04:19.571Z,69.70
2022-10-23T23:06:53.594Z,69.70
2022-10-23T23:09:20.332Z,69.80
2022-10-23T23:11:53.034Z,70.00
2022-10-23T23:14:24.074Z,70.30
2022-10-23T23:16:52.343Z,70.30
2022-10-23T23:19:19.253Z,70.20
2022-10-23T23:21:45.935Z,70.30
2022-10-23T23:24:12.695Z,70.40
2022-10-23T23:26:39.414Z,70.40
2022-10-23T23:29:06.118Z,70.40
2022-10-23T23:31:32.981Z,70.40
2022-10-23T23:33:59.714Z,70.50
2022-10-23T23:36:27.322Z,70.50
2022-10-23T23:38:55.518Z,70.60
2022-10-23T23:41:22.340Z,70.60
2022-10-23T23:43:49.641Z,70.70
2022-10-23T23:46:17.684Z,70.70
2022-10-23T23:48:47.933Z,70.80
2022-10-23T23:51:19.975Z,70.90
2022-10-23T23:53:48.003Z,71.00
2022-10-23T23:56:15.400Z,71.00
2022-10-23T23:58:42.057Z,71.10
